sensor_id;sensor_type;location;lat;lon;timestamp;pressure;altitude;pressure_sealevel;temperature;humidity
84683;BME280;74905;44.124;18.116;2024-03-23T00:53:13;97216.34;;;5.10;75.16
84683;BME280;74905;44.124;18.116;2024-03-23T00:55:41;97217.81;;;5.11;74.33
84683;BME280;74905;44.124;18.116;2024-03-23T00:58:07;97213.00;;;5.11;74.61
84683;BME280;74905;44.124;18.116;2024-03-23T01:00:32;97210.56;;;5.06;74.54
84683;BME280;74905;44.124;18.116;2024-03-23T01:02:58;97213.91;;;4.95;74.68
84683;BME280;74905;44.124;18.116;2024-03-23T01:05:23;97215.78;;;4.82;74.62
84683;BME280;74905;44.124;18.116;2024-03-23T01:07:49;97209.56;;;4.82;75.04
84683;BME280;74905;44.124;18.116;2024-03-23T01:10:15;97212.19;;;4.80;75.45
84683;BME280;74905;44.124;18.116;2024-03-23T01:12:40;97215.38;;;4.76;75.59
84683;BME280;74905;44.124;18.116;2024-03-23T01:15:06;97217.09;;;4.72;75.59
84683;BME280;74905;44.124;18.116;2024-03-23T01:17:32;97214.38;;;4.62;76.20
84683;BME280;74905;44.124;18.116;2024-03-23T01:19:57;97214.78;;;4.59;76.68
84683;BME280;74905;44.124;18.116;2024-03-23T01:22:23;97212.31;;;4.53;76.52
84683;BME280;74905;44.124;18.116;2024-03-23T01:24:49;97212.31;;;4.53;77.05
84683;BME280;74905;44.124;18.116;2024-03-23T01:27:14;97207.53;;;4.54;76.55
84683;BME280;74905;44.124;18.116;2024-03-23T01:29:40;97203.03;;;4.58;75.86
84683;BME280;74905;44.124;18.116;2024-03-23T01:32:06;97192.31;;;4.62;76.42
84683;BME280;74905;44.124;18.116;2024-03-23T01:34:32;97193.19;;;4.65;76.03
84683;BME280;74905;44.124;18.116;2024-03-23T01:36:58;97188.53;;;4.58;76.41
84683;BME280;74905;44.124;18.116;2024-03-23T01:39:24;97188.97;;;4.54;75.43
84683;BME280;74905;44.124;18.116;2024-03-23T01:41:49;97194.91;;;4.41;76.38
84683;BME280;74905;44.124;18.116;2024-03-23T01:44:15;97185.47;;;4.34;76.31
84683;BME280;74905;44.124;18.116;2024-03-23T01:46:41;97186.91;;;4.26;76.40
84683;BME280;74905;44.124;18.116;2024-03-23T01:49:07;97185.03;;;4.19;76.34
84683;BME280;74905;44.124;18.116;2024-03-23T01:51:34;97182.00;;;4.15;76.81
84683;BME280;74905;44.124;18.116;2024-03-23T01:54:01;97178.50;;;4.14;76.80
84683;BME280;74905;44.124;18.116;2024-03-23T01:56:29;97194.00;;;4.09;77.17
84683;BME280;74905;44.124;18.116;2024-03-23T01:58:56;97188.06;;;4.03;77.34
84683;BME280;74905;44.124;18.116;2024-03-23T02:01:22;97191.50;;;3.94;78.08
84683;BME280;74905;44.124;18.116;2024-03-23T02:03:47;97180.63;;;3.96;78.39
84683;BME280;74905;44.124;18.116;2024-03-23T02:06:13;97180.34;;;3.92;78.39
84683;BME280;74905;44.124;18.116;2024-03-23T02:08:39;97178.91;;;3.91;78.78
84683;BME280;74905;44.124;18.116;2024-03-23T02:11:05;97176.88;;;3.92;78.54
84683;BME280;74905;44.124;18.116;2024-03-23T02:13:30;97172.81;;;3.93;78.78
84683;BME280;74905;44.124;18.116;2024-03-23T02:15:57;97167.47;;;3.95;77.88
84683;BME280;74905;44.124;18.116;2024-03-23T02:18:23;97173.22;;;3.89;78.15
84683;BME280;74905;44.124;18.116;2024-03-23T02:20:49;97171.19;;;3.90;78.14
84683;BME280;74905;44.124;18.116;2024-03-23T02:23:15;97177.16;;;3.86;78.61
84683;BME280;74905;44.124;18.116;2024-03-23T02:25:41;97182.66;;;3.86;79.05
84683;BME280;74905;44.124;18.116;2024-03-23T02:28:08;97174.53;;;3.88;78.58
84683;BME280;74905;44.124;18.116;2024-03-23T02:30:33;97169.03;;;3.88;78.95
84683;BME280;74905;44.124;18.116;2024-03-23T02:32:59;97163.53;;;3.88;78.61
84683;BME280;74905;44.124;18.116;2024-03-23T02:35:25;97160.63;;;3.86;78.42
84683;BME280;74905;44.124;18.116;2024-03-23T02:37:51;97152.22;;;3.84;78.24
84683;BME280;74905;44.124;18.116;2024-03-23T02:40:17;97158.47;;;3.85;77.77
84683;BME280;74905;44.124;18.116;2024-03-23T02:42:43;97160.75;;;3.88;78.00
84683;BME280;74905;44.124;18.116;2024-03-23T02:45:09;97143.25;;;3.93;77.96
84683;BME280;74905;44.124;18.116;2024-03-23T02:47:34;97146.44;;;3.90;77.85
84683;BME280;74905;44.124;18.116;2024-03-23T02:50:00;97141.94;;;3.85;78.06
84683;BME280;74905;44.124;18.116;2024-03-23T02:52:26;97128.31;;;3.77;77.98
84683;BME280;74905;44.124;18.116;2024-03-23T02:54:52;97139.44;;;3.69;78.41
84683;BME280;74905;44.124;18.116;2024-03-23T02:57:17;97139.13;;;3.65;77.78
84683;BME280;74905;44.124;18.116;2024-03-23T02:59:43;97139.88;;;3.66;78.18
84683;BME280;74905;44.124;18.116;2024-03-23T03:02:09;97134.34;;;3.56;78.76
84683;BME280;74905;44.124;18.116;2024-03-23T03:04:34;97131.84;;;3.51;79.49
84683;BME280;74905;44.124;18.116;2024-03-23T03:07:00;97129.97;;;3.53;79.67
84683;BME280;74905;44.124;18.116;2024-03-23T03:09:26;97124.06;;;3.57;78.90
84683;BME280;74905;44.124;18.116;2024-03-23T03:11:51;97122.16;;;3.59;78.43
84683;BME280;74905;44.124;18.116;2024-03-23T03:14:17;97128.09;;;3.56;79.33
84683;BME280;74905;44.124;18.116;2024-03-23T03:16:43;97122.16;;;3.59;79.43
84683;BME280;74905;44.124;18.116;2024-03-23T03:19:08;97122.75;;;3.58;78.98
84683;BME280;74905;44.124;18.116;2024-03-23T03:21:35;97113.19;;;3.59;78.93
84683;BME280;74905;44.124;18.116;2024-03-23T03:24:01;97124.78;;;3.57;79.45
84683;BME280;74905;44.124;18.116;2024-03-23T03:26:27;97118.69;;;3.59;78.57
84683;BME280;74905;44.124;18.116;2024-03-23T03:28:53;97130.69;;;3.54;78.52
84683;BME280;74905;44.124;18.116;2024-03-23T03:31:18;97116.59;;;3.40;78.50
84683;BME280;74905;44.124;18.116;2024-03-23T03:33:44;97119.19;;;3.28;79.58
84683;BME280;74905;44.124;18.116;2024-03-23T03:36:10;97120.47;;;3.27;79.32
84683;BME280;74905;44.124;18.116;2024-03-23T03:38:36;97126.81;;;3.20;80.09
84683;BME280;74905;44.124;18.116;2024-03-23T03:41:02;97128.53;;;3.16;80.69
84683;BME280;74905;44.124;18.116;2024-03-23T03:43:28;97124.16;;;3.13;80.84
84683;BME280;74905;44.124;18.116;2024-03-23T03:45:54;97120.28;;;3.16;80.96
84683;BME280;74905;44.124;18.116;2024-03-23T03:48:20;97129.25;;;3.16;80.16
84683;BME280;74905;44.124;18.116;2024-03-23T03:50:46;97122.00;;;3.11;80.36
84683;BME280;74905;44.124;18.116;2024-03-23T03:53:11;97125.31;;;3.10;80.22
84683;BME280;74905;44.124;18.116;2024-03-23T03:55:37;97128.38;;;3.14;79.87
84683;BME280;74905;44.124;18.116;2024-03-23T03:58:03;97128.47;;;3.06;79.76
84683;BME280;74905;44.124;18.116;2024-03-23T04:00:30;97129.06;;;3.05;80.02
84683;BME280;74905;44.124;18.116;2024-03-23T04:02:56;97126.31;;;3.05;80.13
84683;BME280;74905;44.124;18.116;2024-03-23T04:05:22;97115.16;;;3.03;79.79
84683;BME280;74905;44.124;18.116;2024-03-23T04:07:47;97126.72;;;3.01;79.71
84683;BME280;74905;44.124;18.116;2024-03-23T04:10:17;97116.97;;;2.90;80.02
84683;BME280;74905;44.124;18.116;2024-03-23T04:12:43;97121.75;;;2.90;80.52
84683;BME280;74905;44.124;18.116;2024-03-23T04:15:10;97129.09;;;2.87;79.91
84683;BME280;74905;44.124;18.116;2024-03-23T04:17:36;97122.59;;;2.83;81.01
84683;BME280;74905;44.124;18.116;2024-03-23T04:20:02;97115.47;;;2.80;80.57
84683;BME280;74905;44.124;18.116;2024-03-23T04:22:29;97118.22;;;2.80;81.43
84683;BME280;74905;44.124;18.116;2024-03-23T04:24:56;97113.91;;;2.86;81.29
84683;BME280;74905;44.124;18.116;2024-03-23T04:27:25;97113.06;;;2.93;80.44
84683;BME280;74905;44.124;18.116;2024-03-23T04:29:51;97117.56;;;2.89;80.20
84683;BME280;74905;44.124;18.116;2024-03-23T04:32:18;97119.97;;;2.85;80.54
84683;BME280;74905;44.124;18.116;2024-03-23T04:34:44;97120.41;;;2.81;80.73
84683;BME280;74905;44.124;18.116;2024-03-23T04:37:10;97115.31;;;2.78;80.83
84683;BME280;74905;44.124;18.116;2024-03-23T04:39:37;97124.84;;;2.77;80.55
84683;BME280;74905;44.124;18.116;2024-03-23T04:42:03;97125.56;;;2.77;80.75
84683;BME280;74905;44.124;18.116;2024-03-23T04:44:29;97123.72;;;2.80;80.98
84683;BME280;74905;44.124;18.116;2024-03-23T04:46:55;97122.09;;;2.77;80.59
84683;BME280;74905;44.124;18.116;2024-03-23T04:49:20;97121.94;;;2.75;81.39
84683;BME280;74905;44.124;18.116;2024-03-23T04:51:46;97120.09;;;2.77;80.80
84683;BME280;74905;44.124;18.116;2024-03-23T04:54:12;97113.84;;;2.77;81.00
84683;BME280;74905;44.124;18.116;2024-03-23T04:56:38;97117.78;;;2.83;81.62
84683;BME280;74905;44.124;18.116;2024-03-23T04:59:03;97118.44;;;2.91;81.01
84683;BME280;74905;44.124;18.116;2024-03-23T05:01:33;97108.06;;;2.99;80.56
84683;BME280;74905;44.124;18.116;2024-03-23T05:04:02;97113.97;;;2.96;80.57
84683;BME280;74905;44.124;18.116;2024-03-23T05:06:28;97117.38;;;2.87;80.68
84683;BME280;74905;44.124;18.116;2024-03-23T05:08:54;97114.28;;;3.00;80.22
84683;BME280;74905;44.124;18.116;2024-03-23T05:11:19;97117.16;;;3.02;79.23
84683;BME280;74905;44.124;18.116;2024-03-23T05:13:46;97106.59;;;2.98;79.50
84683;BME280;74905;44.124;18.116;2024-03-23T05:16:11;97118.44;;;2.91;80.54
84683;BME280;74905;44.124;18.116;2024-03-23T05:18:37;97113.19;;;2.86;80.36
84683;BME280;74905;44.124;18.116;2024-03-23T05:21:03;97113.03;;;2.84;80.53
84683;BME280;74905;44.124;18.116;2024-03-23T05:23:29;97108.16;;;2.92;79.79
84683;BME280;74905;44.124;18.116;2024-03-23T05:25:55;97107.91;;;2.97;79.92
84683;BME280;74905;44.124;18.116;2024-03-23T05:28:21;97108.78;;;3.00;78.97
84683;BME280;74905;44.124;18.116;2024-03-23T05:30:54;97112.66;;;2.97;79.86
84683;BME280;74905;44.124;18.116;2024-03-23T05:33:20;97105.16;;;2.97;79.25
84683;BME280;74905;44.124;18.116;2024-03-23T05:35:47;97107.50;;;3.01;79.97
84683;BME280;74905;44.124;18.116;2024-03-23T05:38:16;97099.25;;;3.01;78.95
84683;BME280;74905;44.124;18.116;2024-03-23T05:40:41;97103.19;;;3.08;79.71
84683;BME280;74905;44.124;18.116;2024-03-23T05:43:07;97108.97;;;3.12;79.79
84683;BME280;74905;44.124;18.116;2024-03-23T05:45:32;97108.41;;;3.13;79.60
84683;BME280;74905;44.124;18.116;2024-03-23T05:47:58;97109.16;;;3.23;79.28
84683;BME280;74905;44.124;18.116;2024-03-23T05:50:24;97107.03;;;3.31;79.30
84683;BME280;74905;44.124;18.116;2024-03-23T05:52:50;97103.13;;;3.34;78.94
84683;BME280;74905;44.124;18.116;2024-03-23T05:55:16;97100.53;;;3.36;78.86
84683;BME280;74905;44.124;18.116;2024-03-23T05:57:41;97101.44;;;3.49;78.57
84683;BME280;74905;44.124;18.116;2024-03-23T06:00:07;97100.75;;;3.58;77.87
84683;BME280;74905;44.124;18.116;2024-03-23T06:02:43;97102.34;;;3.61;78.09
84683;BME280;74905;44.124;18.116;2024-03-23T06:05:12;97104.81;;;3.66;77.89
84683;BME280;74905;44.124;18.116;2024-03-23T06:07:38;97109.31;;;3.71;77.63
84683;BME280;74905;44.124;18.116;2024-03-23T06:10:05;97107.41;;;3.64;78.62
84683;BME280;74905;44.124;18.116;2024-03-23T06:12:31;97108.91;;;3.75;78.06
84683;BME280;74905;44.124;18.116;2024-03-23T06:14:57;97110.06;;;3.82;78.33
84683;BME280;74905;44.124;18.116;2024-03-23T06:17:22;97108.19;;;3.84;77.77
84683;BME280;74905;44.124;18.116;2024-03-23T06:19:48;97101.81;;;3.91;77.80
84683;BME280;74905;44.124;18.116;2024-03-23T06:22:14;97101.84;;;4.10;77.61
84683;BME280;74905;44.124;18.116;2024-03-23T06:24:40;97102.72;;;4.32;76.16
84683;BME280;74905;44.124;18.116;2024-03-23T06:27:06;97099.06;;;4.49;76.80
84683;BME280;74905;44.124;18.116;2024-03-23T06:29:31;97098.31;;;4.58;75.91
84683;BME280;74905;44.124;18.116;2024-03-23T06:31:57;97092.38;;;4.71;75.01
84683;BME280;74905;44.124;18.116;2024-03-23T06:34:23;97096.13;;;4.76;74.99
84683;BME280;74905;44.124;18.116;2024-03-23T06:36:49;97095.38;;;4.75;74.92
84683;BME280;74905;44.124;18.116;2024-03-23T06:39:16;97098.28;;;4.77;74.87
84683;BME280;74905;44.124;18.116;2024-03-23T06:41:52;97091.72;;;4.92;75.17
84683;BME280;74905;44.124;18.116;2024-03-23T06:44:19;97090.66;;;5.07;74.53
84683;BME280;74905;44.124;18.116;2024-03-23T06:46:45;97081.94;;;5.10;74.33
84683;BME280;74905;44.124;18.116;2024-03-23T06:49:11;97086.97;;;5.23;74.10
84683;BME280;74905;44.124;18.116;2024-03-23T06:51:36;97078.66;;;5.33;73.77
84683;BME280;74905;44.124;18.116;2024-03-23T06:54:06;97088.03;;;5.40;73.76
84683;BME280;74905;44.124;18.116;2024-03-23T06:56:31;97083.78;;;5.48;73.23
84683;BME280;74905;44.124;18.116;2024-03-23T06:58:58;97075.22;;;5.54;72.96
84683;BME280;74905;44.124;18.116;2024-03-23T07:01:23;97078.16;;;5.68;73.15
84683;BME280;74905;44.124;18.116;2024-03-23T07:03:49;97074.91;;;5.81;72.39
84683;BME280;74905;44.124;18.116;2024-03-23T07:06:15;97080.97;;;5.89;72.19
84683;BME280;74905;44.124;18.116;2024-03-23T07:08:41;97067.88;;;6.11;72.28
84683;BME280;74905;44.124;18.116;2024-03-23T07:11:07;97069.81;;;6.41;70.98
84683;BME280;74905;44.124;18.116;2024-03-23T07:13:32;97066.16;;;6.60;71.03
84683;BME280;74905;44.124;18.116;2024-03-23T07:15:58;97062.47;;;6.90;70.58
84683;BME280;74905;44.124;18.116;2024-03-23T07:18:25;97070.78;;;7.14;69.15
84683;BME280;74905;44.124;18.116;2024-03-23T07:20:58;97059.97;;;7.53;68.10
84683;BME280;74905;44.124;18.116;2024-03-23T07:23:24;97062.19;;;7.79;66.53
84683;BME280;74905;44.124;18.116;2024-03-23T07:26:00;97061.47;;;7.79;66.87
84683;BME280;74905;44.124;18.116;2024-03-23T07:28:26;97057.38;;;8.29;66.34
84683;BME280;74905;44.124;18.116;2024-03-23T07:33:28;97048.53;;;8.83;64.49
84683;BME280;74905;44.124;18.116;2024-03-23T07:35:53;97042.34;;;9.23;63.05
84683;BME280;74905;44.124;18.116;2024-03-23T07:38:19;97042.56;;;9.68;61.32
84683;BME280;74905;44.124;18.116;2024-03-23T07:40:45;97030.88;;;10.42;59.03
84683;BME280;74905;44.124;18.116;2024-03-23T07:43:10;97027.69;;;10.79;58.05
84683;BME280;74905;44.124;18.116;2024-03-23T07:45:36;97022.53;;;11.52;56.59
84683;BME280;74905;44.124;18.116;2024-03-23T07:48:04;97019.72;;;11.84;55.71
84683;BME280;74905;44.124;18.116;2024-03-23T07:50:29;97015.22;;;12.10;54.44
84683;BME280;74905;44.124;18.116;2024-03-23T07:52:55;97014.91;;;12.20;54.18
84683;BME280;74905;44.124;18.116;2024-03-23T07:55:20;97000.84;;;12.71;52.37
84683;BME280;74905;44.124;18.116;2024-03-23T07:57:46;96997.50;;;12.94;52.20
84683;BME280;74905;44.124;18.116;2024-03-23T08:00:13;96996.56;;;13.25;50.73
84683;BME280;74905;44.124;18.116;2024-03-23T08:02:39;96992.84;;;13.80;48.76
84683;BME280;74905;44.124;18.116;2024-03-23T08:05:05;96990.78;;;14.02;48.30
84683;BME280;74905;44.124;18.116;2024-03-23T08:07:31;96991.16;;;14.58;46.91
84683;BME280;74905;44.124;18.116;2024-03-23T08:09:56;96986.22;;;15.04;45.44
84683;BME280;74905;44.124;18.116;2024-03-23T08:12:24;96983.81;;;15.44;44.08
84683;BME280;74905;44.124;18.116;2024-03-23T08:14:49;96974.63;;;15.68;45.19
84683;BME280;74905;44.124;18.116;2024-03-23T08:17:15;96976.78;;;15.69;45.47
84683;BME280;74905;44.124;18.116;2024-03-23T08:19:41;96974.16;;;15.77;43.59
84683;BME280;74905;44.124;18.116;2024-03-23T08:22:06;96971.28;;;16.31;41.88
84683;BME280;74905;44.124;18.116;2024-03-23T08:24:32;96973.25;;;16.56;41.99
84683;BME280;74905;44.124;18.116;2024-03-23T08:26:57;96968.66;;;16.69;42.21
84683;BME280;74905;44.124;18.116;2024-03-23T08:29:23;96965.47;;;17.57;39.45
84683;BME280;74905;44.124;18.116;2024-03-23T08:31:48;96951.53;;;18.05;39.40
84683;BME280;74905;44.124;18.116;2024-03-23T08:34:14;96956.09;;;18.26;38.62
84683;BME280;74905;44.124;18.116;2024-03-23T08:36:39;96956.19;;;17.88;38.80
84683;BME280;74905;44.124;18.116;2024-03-23T08:39:05;96942.09;;;17.86;39.18
84683;BME280;74905;44.124;18.116;2024-03-23T08:41:31;96936.09;;;18.54;37.57
84683;BME280;74905;44.124;18.116;2024-03-23T08:43:56;96938.03;;;18.41;37.84
84683;BME280;74905;44.124;18.116;2024-03-23T08:46:22;96929.56;;;18.39;37.63
84683;BME280;74905;44.124;18.116;2024-03-23T08:48:47;96923.25;;;18.43;38.13
84683;BME280;74905;44.124;18.116;2024-03-23T08:51:16;96924.22;;;18.59;39.17
84683;BME280;74905;44.124;18.116;2024-03-23T08:53:42;96916.53;;;19.22;38.04
84683;BME280;74905;44.124;18.116;2024-03-23T08:56:55;96905.78;;;19.07;36.51
84683;BME280;74905;44.124;18.116;2024-03-23T08:59:21;96903.31;;;18.79;37.41
84683;BME280;74905;44.124;18.116;2024-03-23T09:01:49;96894.91;;;19.47;37.37
84683;BME280;74905;44.124;18.116;2024-03-23T09:04:14;96888.53;;;20.29;34.41
84683;BME280;74905;44.124;18.116;2024-03-23T09:06:42;96877.47;;;20.66;34.10
84683;BME280;74905;44.124;18.116;2024-03-23T09:09:08;96879.84;;;21.32;34.20
84683;BME280;74905;44.124;18.116;2024-03-23T09:11:34;96861.47;;;21.47;31.98
84683;BME280;74905;44.124;18.116;2024-03-23T09:13:59;96862.19;;;21.66;32.70
84683;BME280;74905;44.124;18.116;2024-03-23T09:16:25;96860.78;;;21.96;31.03
84683;BME280;74905;44.124;18.116;2024-03-23T09:18:52;96853.69;;;21.86;31.07
84683;BME280;74905;44.124;18.116;2024-03-23T09:21:18;96853.69;;;21.82;32.36
84683;BME280;74905;44.124;18.116;2024-03-23T09:23:44;96836.59;;;22.51;30.78
84683;BME280;74905;44.124;18.116;2024-03-23T09:26:12;96827.47;;;22.08;31.36
84683;BME280;74905;44.124;18.116;2024-03-23T09:28:41;96822.31;;;22.82;29.14
84683;BME280;74905;44.124;18.116;2024-03-23T09:31:07;96811.00;;;22.74;30.28
84683;BME280;74905;44.124;18.116;2024-03-23T09:33:36;96809.66;;;22.52;30.09
84683;BME280;74905;44.124;18.116;2024-03-23T09:38:33;96802.06;;;23.47;29.53
84683;BME280;74905;44.124;18.116;2024-03-23T09:40:59;96787.28;;;24.14;27.92
84683;BME280;74905;44.124;18.116;2024-03-23T09:43:25;96790.81;;;24.77;27.09
84683;BME280;74905;44.124;18.116;2024-03-23T09:45:52;96784.06;;;25.03;26.77
84683;BME280;74905;44.124;18.116;2024-03-23T09:48:18;96779.56;;;24.67;26.87
84683;BME280;74905;44.124;18.116;2024-03-23T09:50:45;96762.72;;;24.47;27.29
84683;BME280;74905;44.124;18.116;2024-03-23T09:53:12;96763.41;;;24.52;27.39
84683;BME280;74905;44.124;18.116;2024-03-23T09:55:40;96762.25;;;24.26;27.25
84683;BME280;74905;44.124;18.116;2024-03-23T09:58:06;96758.34;;;23.95;27.56
84683;BME280;74905;44.124;18.116;2024-03-23T10:00:32;96758.75;;;24.81;26.70
84683;BME280;74905;44.124;18.116;2024-03-23T10:02:59;96746.56;;;25.36;25.94
84683;BME280;74905;44.124;18.116;2024-03-23T10:05:30;96746.13;;;26.03;23.58
84683;BME280;74905;44.124;18.116;2024-03-23T10:10:43;96730.28;;;25.30;24.70
84683;BME280;74905;44.124;18.116;2024-03-23T10:13:09;96725.34;;;26.09;24.94
84683;BME280;74905;44.124;18.116;2024-03-23T10:15:36;96722.28;;;26.56;26.04
84683;BME280;74905;44.124;18.116;2024-03-23T10:18:18;96710.22;;;26.86;23.36
84683;BME280;74905;44.124;18.116;2024-03-23T10:20:51;96699.09;;;26.72;23.37
84683;BME280;74905;44.124;18.116;2024-03-23T10:23:17;96698.97;;;27.09;22.37
84683;BME280;74905;44.124;18.116;2024-03-23T10:25:43;96688.19;;;27.96;20.95
84683;BME280;74905;44.124;18.116;2024-03-23T10:28:09;96681.97;;;28.14;20.94
84683;BME280;74905;44.124;18.116;2024-03-23T10:30:36;96678.06;;;27.74;20.71
84683;BME280;74905;44.124;18.116;2024-03-23T10:33:11;96675.56;;;28.64;19.34
84683;BME280;74905;44.124;18.116;2024-03-23T10:35:37;96678.78;;;28.02;21.22
84683;BME280;74905;44.124;18.116;2024-03-23T10:38:07;96673.09;;;26.86;22.33
84683;BME280;74905;44.124;18.116;2024-03-23T10:40:37;96666.44;;;27.27;21.53
84683;BME280;74905;44.124;18.116;2024-03-23T10:43:03;96661.50;;;28.06;22.75
84683;BME280;74905;44.124;18.116;2024-03-23T10:45:30;96657.56;;;28.67;21.75
84683;BME280;74905;44.124;18.116;2024-03-23T10:47:55;96659.84;;;29.08;19.03
84683;BME280;74905;44.124;18.116;2024-03-23T10:50:22;96652.69;;;29.53;19.56
84683;BME280;74905;44.124;18.116;2024-03-23T10:52:48;96640.66;;;28.82;19.29
84683;BME280;74905;44.124;18.116;2024-03-23T10:55:16;96625.47;;;28.88;19.50
84683;BME280;74905;44.124;18.116;2024-03-23T10:57:56;96635.00;;;28.80;19.58
84683;BME280;74905;44.124;18.116;2024-03-23T11:00:24;96628.63;;;29.44;18.47
84683;BME280;74905;44.124;18.116;2024-03-23T11:02:50;96619.84;;;30.29;18.18
84683;BME280;74905;44.124;18.116;2024-03-23T11:07:50;96602.69;;;30.46;19.42
84683;BME280;74905;44.124;18.116;2024-03-23T11:10:27;96595.31;;;30.69;17.58
84683;BME280;74905;44.124;18.116;2024-03-23T11:12:54;96594.81;;;30.82;17.79
84683;BME280;74905;44.124;18.116;2024-03-23T11:15:20;96590.72;;;31.12;19.13
84683;BME280;74905;44.124;18.116;2024-03-23T11:18:12;96578.91;;;31.20;16.55
84683;BME280;74905;44.124;18.116;2024-03-23T11:20:45;96574.56;;;29.92;17.86
84683;BME280;74905;44.124;18.116;2024-03-23T11:23:26;96567.78;;;29.62;18.20
84683;BME280;74905;44.124;18.116;2024-03-23T11:25:52;96569.31;;;28.97;18.53
84683;BME280;74905;44.124;18.116;2024-03-23T11:28:18;96563.41;;;28.80;19.30
84683;BME280;74905;44.124;18.116;2024-03-23T11:30:43;96559.97;;;30.19;17.49
84683;BME280;74905;44.124;18.116;2024-03-23T11:33:09;96537.88;;;30.51;17.30
84683;BME280;74905;44.124;18.116;2024-03-23T11:35:37;96542.06;;;30.73;19.29
84683;BME280;74905;44.124;18.116;2024-03-23T11:38:08;96536.91;;;30.21;19.07
84683;BME280;74905;44.124;18.116;2024-03-23T11:40:55;96523.63;;;30.49;17.73
84683;BME280;74905;44.124;18.116;2024-03-23T11:43:20;96528.28;;;29.83;18.22
84683;BME280;74905;44.124;18.116;2024-03-23T11:45:51;96521.31;;;28.54;19.35
84683;BME280;74905;44.124;18.116;2024-03-23T11:48:20;96511.81;;;28.82;19.77
84683;BME280;74905;44.124;18.116;2024-03-23T11:50:50;96514.69;;;29.23;18.80
84683;BME280;74905;44.124;18.116;2024-03-23T11:53:17;96500.38;;;30.38;17.04
84683;BME280;74905;44.124;18.116;2024-03-23T11:55:48;96490.72;;;30.81;17.29
84683;BME280;74905;44.124;18.116;2024-03-23T11:58:15;96495.47;;;29.20;18.35
84683;BME280;74905;44.124;18.116;2024-03-23T12:00:41;96488.97;;;29.42;18.58
84683;BME280;74905;44.124;18.116;2024-03-23T12:03:07;96477.16;;;28.90;18.32
84683;BME280;74905;44.124;18.116;2024-03-23T12:05:33;96482.91;;;28.90;18.99
84683;BME280;74905;44.124;18.116;2024-03-23T12:08:19;96475.00;;;27.78;20.36
84683;BME280;74905;44.124;18.116;2024-03-23T12:10:49;96463.78;;;26.96;21.18
84683;BME280;74905;44.124;18.116;2024-03-23T12:13:21;96462.66;;;26.56;22.04
84683;BME280;74905;44.124;18.116;2024-03-23T12:15:50;96462.22;;;27.75;21.00
84683;BME280;74905;44.124;18.116;2024-03-23T12:18:17;96456.44;;;27.28;20.54
84683;BME280;74905;44.124;18.116;2024-03-23T12:20:43;96453.50;;;26.20;22.12
84683;BME280;74905;44.124;18.116;2024-03-23T12:23:12;96452.28;;;25.47;22.67
84683;BME280;74905;44.124;18.116;2024-03-23T12:25:41;96443.88;;;26.05;22.20
84683;BME280;74905;44.124;18.116;2024-03-23T12:28:07;96456.28;;;27.84;20.17
84683;BME280;74905;44.124;18.116;2024-03-23T12:30:39;96440.31;;;28.36;20.24
84683;BME280;74905;44.124;18.116;2024-03-23T12:33:05;96438.50;;;28.27;19.33
84683;BME280;74905;44.124;18.116;2024-03-23T12:35:31;96432.34;;;26.69;20.96
84683;BME280;74905;44.124;18.116;2024-03-23T12:37:57;96425.13;;;25.52;22.38
84683;BME280;74905;44.124;18.116;2024-03-23T12:40:23;96424.81;;;26.84;22.01
84683;BME280;74905;44.124;18.116;2024-03-23T12:42:48;96416.72;;;29.19;19.80
84683;BME280;74905;44.124;18.116;2024-03-23T12:45:14;96410.31;;;31.46;16.93
84683;BME280;74905;44.124;18.116;2024-03-23T12:47:40;96411.13;;;32.64;15.44
84683;BME280;74905;44.124;18.116;2024-03-23T12:50:06;96411.97;;;31.72;16.26
84683;BME280;74905;44.124;18.116;2024-03-23T12:52:32;96395.94;;;31.46;16.93
84683;BME280;74905;44.124;18.116;2024-03-23T12:54:58;96396.00;;;30.96;17.27
84683;BME280;74905;44.124;18.116;2024-03-23T12:57:24;96386.44;;;31.18;16.48
84683;BME280;74905;44.124;18.116;2024-03-23T12:59:53;96377.91;;;31.48;16.23
84683;BME280;74905;44.124;18.116;2024-03-23T13:02:23;96374.44;;;30.80;17.68
84683;BME280;74905;44.124;18.116;2024-03-23T13:04:52;96382.16;;;31.49;16.60
84683;BME280;74905;44.124;18.116;2024-03-23T13:07:20;96383.94;;;30.77;17.21
84683;BME280;74905;44.124;18.116;2024-03-23T13:09:46;96400.75;;;28.64;19.25
84683;BME280;74905;44.124;18.116;2024-03-23T13:12:12;96377.78;;;29.45;18.88
84683;BME280;74905;44.124;18.116;2024-03-23T13:14:38;96382.91;;;28.84;19.41
84683;BME280;74905;44.124;18.116;2024-03-23T13:17:05;96383.56;;;26.52;21.69
84683;BME280;74905;44.124;18.116;2024-03-23T13:19:31;96374.22;;;25.98;21.99
84683;BME280;74905;44.124;18.116;2024-03-23T13:21:58;96381.47;;;24.96;23.81
84683;BME280;74905;44.124;18.116;2024-03-23T13:24:24;96375.47;;;24.73;23.95
84683;BME280;74905;44.124;18.116;2024-03-23T13:26:54;96362.19;;;26.78;22.29
84683;BME280;74905;44.124;18.116;2024-03-23T13:29:20;96374.06;;;27.61;20.44
84683;BME280;74905;44.124;18.116;2024-03-23T13:31:46;96358.81;;;28.77;20.30
84683;BME280;74905;44.124;18.116;2024-03-23T13:34:13;96352.47;;;28.54;20.31
84683;BME280;74905;44.124;18.116;2024-03-23T13:36:44;96360.97;;;27.91;21.12
84683;BME280;74905;44.124;18.116;2024-03-23T13:39:10;96351.91;;;26.36;22.21
84683;BME280;74905;44.124;18.116;2024-03-23T13:41:44;96343.59;;;26.25;22.42
84683;BME280;74905;44.124;18.116;2024-03-23T13:44:11;96359.31;;;25.67;22.95
84683;BME280;74905;44.124;18.116;2024-03-23T13:46:38;96352.47;;;27.19;21.76
84683;BME280;74905;44.124;18.116;2024-03-23T13:49:07;96331.16;;;27.63;21.17
84683;BME280;74905;44.124;18.116;2024-03-23T13:51:33;96363.03;;;25.90;22.58
84683;BME280;74905;44.124;18.116;2024-03-23T13:53:58;96336.81;;;25.83;23.14
84683;BME280;74905;44.124;18.116;2024-03-23T13:56:27;96333.31;;;25.81;22.98